createdAt,value
2022-11-26T00:09:51.525Z,4.2
2022-11-26T00:23:51.707Z,4.2
2022-11-26T00:37:52.024Z,4.4
2022-11-26T00:51:51.986Z,4.9
2022-11-26T01:05:51.972Z,5.9
2022-11-26T01:19:52.005Z,6.5
2022-11-26T01:33:51.990Z,5.9
2022-11-26T01:47:52.089Z,7.2
2022-11-26T02:01:52.621Z,8.1
2022-11-26T02:15:52.723Z,7.8
2022-11-26T02:29:52.741Z,7.0
2022-11-26T02:43:52.794Z,5.6
2022-11-26T02:57:52.854Z,4.4
2022-11-26T03:11:52.852Z,3.6
2022-11-26T03:25:52.839Z,3.6
2022-11-26T03:39:52.879Z,3.4
2022-11-26T03:53:52.970Z,3.7
2022-11-26T04:07:53.054Z,3.8
2022-11-26T04:21:52.956Z,3.9
2022-11-26T04:35:52.973Z,3.6
2022-11-26T04:49:52.997Z,3.7
2022-11-26T05:03:53.093Z,4.4
2022-11-26T05:17:53.123Z,5.3
2022-11-26T05:31:53.443Z,5.0
2022-11-26T05:45:53.973Z,3.8
2022-11-26T05:59:54.116Z,3.5
2022-11-26T06:13:54.139Z,3.8
2022-11-26T06:28:54.183Z,3.8
2022-11-26T06:43:54.169Z,4.1
2022-11-26T06:58:54.366Z,4.3
2022-11-26T07:13:54.390Z,4.6
2022-11-26T07:28:54.529Z,4.6
2022-11-26T07:43:54.611Z,4.8
2022-11-26T07:58:54.627Z,8.2
2022-11-26T08:13:54.798Z,9.4
2022-11-26T08:28:54.801Z,9.9
2022-11-26T08:44:06.882Z,11.6
2022-11-26T08:58:54.864Z,13.2
2022-11-26T09:13:54.855Z,13.9
2022-11-26T09:28:54.822Z,15.3
2022-11-26T09:43:54.858Z,15.8
2022-11-26T09:58:54.870Z,14.6
2022-11-26T10:13:55.089Z,14.2
2022-11-26T10:28:54.905Z,14.1
2022-11-26T10:43:54.931Z,14.1
2022-11-26T10:58:54.894Z,14.0
2022-11-26T11:13:54.960Z,14.4
2022-11-26T11:28:54.969Z,14.0
2022-11-26T11:43:55.002Z,14.0
2022-11-26T11:58:55.030Z,14.8
2022-11-26T12:13:55.038Z,14.7
2022-11-26T12:28:55.067Z,14.9
2022-11-26T12:43:55.070Z,15.6
2022-11-26T12:58:55.120Z,15.9
2022-11-26T13:13:55.160Z,16.0
2022-11-26T13:28:55.167Z,15.9
2022-11-26T13:43:55.183Z,15.5
2022-11-26T13:58:55.221Z,15.5
2022-11-26T14:14:55.191Z,15.5
2022-11-26T14:29:55.260Z,15.3
2022-11-26T14:44:55.373Z,16.2
2022-11-26T14:59:55.424Z,13.5
2022-11-26T15:14:55.424Z,10.3
2022-11-26T15:29:55.476Z,8.1
2022-11-26T15:44:55.531Z,7.8
2022-11-26T16:00:55.662Z,7.0
2022-11-26T16:15:55.599Z,6.5
2022-11-26T16:29:55.599Z,6.2
2022-11-26T16:43:57.368Z,5.9
2022-11-26T16:57:56.706Z,5.7
2022-11-26T17:11:55.655Z,5.3
2022-11-26T17:25:55.695Z,5.2
2022-11-26T17:40:55.676Z,5.0
2022-11-26T17:55:55.741Z,6.1
2022-11-26T18:09:55.809Z,5.8
2022-11-26T18:23:55.790Z,5.3
2022-11-26T18:37:55.813Z,4.7
2022-11-26T18:51:55.766Z,5.4
2022-11-26T19:05:55.812Z,5.0
2022-11-26T19:19:55.875Z,4.2
2022-11-26T19:33:55.902Z,4.6
2022-11-26T19:47:55.934Z,5.2
2022-11-26T20:01:56.126Z,5.0
2022-11-26T20:15:55.995Z,4.4
2022-11-26T20:29:55.995Z,4.4
2022-11-26T20:43:58.866Z,4.3
2022-11-26T20:57:56.388Z,3.6
2022-11-26T21:11:56.369Z,3.4
2022-11-26T21:25:56.385Z,3.9
2022-11-26T21:39:56.401Z,3.5
2022-11-26T21:53:56.537Z,3.3
2022-11-26T22:07:56.689Z,3.3
2022-11-26T22:21:56.890Z,3.1
2022-11-26T22:35:56.932Z,2.9
2022-11-26T22:49:57.103Z,2.9
2022-11-26T23:03:57.237Z,2.6
2022-11-26T23:17:57.225Z,2.4
2022-11-26T23:31:57.368Z,2.5
2022-11-26T23:45:57.370Z,2.3
2022-11-26T23:59:57.364Z,1.8
